sensor_id;sensor_type;location;lat;lon;timestamp;P1;durP1;ratioP1;P2;durP2;ratioP2
10805;SDS011;5455;53.224;6.000;2022-10-17T00:00:59;5.53;;;1.30;;
10805;SDS011;5455;53.224;6.000;2022-10-17T00:03:26;2.60;;;0.97;;
10805;SDS011;5455;53.224;6.000;2022-10-17T00:05:54;5.50;;;1.57;;
10805;SDS011;5455;53.224;6.000;2022-10-17T00:08:24;4.40;;;1.10;;
10805;SDS011;5455;53.224;6.000;2022-10-17T00:10:58;5.60;;;1.20;;
10805;SDS011;5455;53.224;6.000;2022-10-17T00:13:28;5.97;;;1.23;;
10805;SDS011;5455;53.224;6.000;2022-10-17T00:15:56;3.53;;;1.20;;
10805;SDS011;5455;53.224;6.000;2022-10-17T00:18:24;4.50;;;1.27;;
10805;SDS011;5455;53.224;6.000;2022-10-17T00:20:52;4.67;;;1.57;;
10805;SDS011;5455;53.224;6.000;2022-10-17T00:23:19;7.27;;;1.33;;
10805;SDS011;5455;53.224;6.000;2022-10-17T00:25:56;5.97;;;1.43;;
10805;SDS011;5455;53.224;6.000;2022-10-17T00:28:24;2.87;;;1.03;;
10805;SDS011;5455;53.224;6.000;2022-10-17T00:30:59;4.87;;;1.70;;
10805;SDS011;5455;53.224;6.000;2022-10-17T00:33:29;7.07;;;1.20;;
10805;SDS011;5455;53.224;6.000;2022-10-17T00:38:41;2.70;;;1.13;;
10805;SDS011;5455;53.224;6.000;2022-10-17T00:41:12;8.93;;;1.50;;
10805;SDS011;5455;53.224;6.000;2022-10-17T00:46:17;5.73;;;1.47;;
10805;SDS011;5455;53.224;6.000;2022-10-17T00:48:45;5.33;;;1.33;;
10805;SDS011;5455;53.224;6.000;2022-10-17T00:51:14;4.03;;;1.43;;
10805;SDS011;5455;53.224;6.000;2022-10-17T00:53:45;4.47;;;1.40;;
10805;SDS011;5455;53.224;6.000;2022-10-17T00:56:13;6.07;;;1.40;;
10805;SDS011;5455;53.224;6.000;2022-10-17T00:58:43;7.20;;;1.50;;
10805;SDS011;5455;53.224;6.000;2022-10-17T01:01:10;5.13;;;1.70;;
10805;SDS011;5455;53.224;6.000;2022-10-17T01:03:38;4.07;;;1.43;;
10805;SDS011;5455;53.224;6.000;2022-10-17T01:06:05;4.30;;;1.37;;
10805;SDS011;5455;53.224;6.000;2022-10-17T01:08:33;3.30;;;1.50;;
10805;SDS011;5455;53.224;6.000;2022-10-17T01:13:45;3.87;;;1.83;;
10805;SDS011;5455;53.224;6.000;2022-10-17T01:16:25;4.27;;;1.67;;
10805;SDS011;5455;53.224;6.000;2022-10-17T01:22:05;4.97;;;1.60;;
10805;SDS011;5455;53.224;6.000;2022-10-17T01:27:59;3.50;;;1.70;;
10805;SDS011;5455;53.224;6.000;2022-10-17T01:30:45;4.83;;;2.17;;
10805;SDS011;5455;53.224;6.000;2022-10-17T01:37:07;3.70;;;1.70;;
10805;SDS011;5455;53.224;6.000;2022-10-17T01:44:57;5.20;;;1.90;;
10805;SDS011;5455;53.224;6.000;2022-10-17T01:47:30;5.13;;;1.90;;
10805;SDS011;5455;53.224;6.000;2022-10-17T01:50:05;7.50;;;1.93;;
10805;SDS011;5455;53.224;6.000;2022-10-17T01:52:46;4.63;;;1.90;;
10805;SDS011;5455;53.224;6.000;2022-10-17T01:55:19;4.87;;;1.83;;
10805;SDS011;5455;53.224;6.000;2022-10-17T01:57:55;8.80;;;2.10;;
10805;SDS011;5455;53.224;6.000;2022-10-17T02:00:27;4.80;;;1.87;;
10805;SDS011;5455;53.224;6.000;2022-10-17T02:02:59;3.73;;;1.80;;
10805;SDS011;5455;53.224;6.000;2022-10-17T02:05:34;3.97;;;1.83;;
10805;SDS011;5455;53.224;6.000;2022-10-17T02:08:05;5.23;;;1.80;;
10805;SDS011;5455;53.224;6.000;2022-10-17T02:10:43;4.50;;;2.07;;
10805;SDS011;5455;53.224;6.000;2022-10-17T02:15:45;3.50;;;1.70;;
10805;SDS011;5455;53.224;6.000;2022-10-17T02:21:55;4.67;;;1.70;;
10805;SDS011;5455;53.224;6.000;2022-10-17T02:30:11;5.57;;;1.93;;
10805;SDS011;5455;53.224;6.000;2022-10-17T02:32:59;4.40;;;1.67;;
10805;SDS011;5455;53.224;6.000;2022-10-17T02:35:33;2.97;;;1.90;;
10805;SDS011;5455;53.224;6.000;2022-10-17T02:38:04;7.83;;;2.10;;
10805;SDS011;5455;53.224;6.000;2022-10-17T02:40:35;3.33;;;1.70;;
10805;SDS011;5455;53.224;6.000;2022-10-17T02:43:04;6.20;;;1.97;;
10805;SDS011;5455;53.224;6.000;2022-10-17T02:45:31;3.37;;;1.60;;
10805;SDS011;5455;53.224;6.000;2022-10-17T02:50:38;2.80;;;1.90;;
10805;SDS011;5455;53.224;6.000;2022-10-17T02:53:13;4.30;;;2.07;;
10805;SDS011;5455;53.224;6.000;2022-10-17T02:55:46;10.90;;;2.40;;
10805;SDS011;5455;53.224;6.000;2022-10-17T02:58:20;4.33;;;2.60;;
10805;SDS011;5455;53.224;6.000;2022-10-17T03:00:51;4.80;;;2.20;;
10805;SDS011;5455;53.224;6.000;2022-10-17T03:03:20;4.90;;;2.10;;
10805;SDS011;5455;53.224;6.000;2022-10-17T03:06:00;4.63;;;2.17;;
10805;SDS011;5455;53.224;6.000;2022-10-17T03:08:27;5.37;;;2.30;;
10805;SDS011;5455;53.224;6.000;2022-10-17T03:10:55;6.93;;;2.30;;
10805;SDS011;5455;53.224;6.000;2022-10-17T03:13:25;4.83;;;2.37;;
10805;SDS011;5455;53.224;6.000;2022-10-17T03:15:54;2.63;;;2.17;;
10805;SDS011;5455;53.224;6.000;2022-10-17T03:18:23;4.50;;;2.50;;
10805;SDS011;5455;53.224;6.000;2022-10-17T03:20:56;5.07;;;3.10;;
10805;SDS011;5455;53.224;6.000;2022-10-17T03:23:24;6.00;;;2.80;;
10805;SDS011;5455;53.224;6.000;2022-10-17T03:25:52;4.63;;;2.57;;
10805;SDS011;5455;53.224;6.000;2022-10-17T03:28:19;4.03;;;2.87;;
10805;SDS011;5455;53.224;6.000;2022-10-17T03:30:47;5.63;;;2.37;;
10805;SDS011;5455;53.224;6.000;2022-10-17T03:33:15;7.07;;;2.77;;
10805;SDS011;5455;53.224;6.000;2022-10-17T03:35:42;5.90;;;2.90;;
10805;SDS011;5455;53.224;6.000;2022-10-17T03:38:10;3.83;;;2.73;;
10805;SDS011;5455;53.224;6.000;2022-10-17T03:40:38;4.00;;;3.00;;
10805;SDS011;5455;53.224;6.000;2022-10-17T03:43:05;6.47;;;2.77;;
10805;SDS011;5455;53.224;6.000;2022-10-17T03:45:33;5.87;;;3.00;;
10805;SDS011;5455;53.224;6.000;2022-10-17T03:48:00;8.33;;;3.10;;
10805;SDS011;5455;53.224;6.000;2022-10-17T03:50:29;5.40;;;3.13;;
10805;SDS011;5455;53.224;6.000;2022-10-17T03:52:57;6.63;;;3.37;;
10805;SDS011;5455;53.224;6.000;2022-10-17T03:55:25;4.03;;;3.20;;
10805;SDS011;5455;53.224;6.000;2022-10-17T03:57:52;5.33;;;3.27;;
10805;SDS011;5455;53.224;6.000;2022-10-17T04:00:22;5.10;;;3.20;;
10805;SDS011;5455;53.224;6.000;2022-10-17T04:02:55;7.40;;;3.50;;
10805;SDS011;5455;53.224;6.000;2022-10-17T04:05:25;5.00;;;3.07;;
10805;SDS011;5455;53.224;6.000;2022-10-17T04:07:52;6.07;;;3.53;;
10805;SDS011;5455;53.224;6.000;2022-10-17T04:10:27;4.80;;;3.60;;
10805;SDS011;5455;53.224;6.000;2022-10-17T04:12:55;5.67;;;3.30;;
10805;SDS011;5455;53.224;6.000;2022-10-17T04:15:23;7.30;;;3.67;;
10805;SDS011;5455;53.224;6.000;2022-10-17T04:17:51;5.97;;;3.60;;
10805;SDS011;5455;53.224;6.000;2022-10-17T04:20:19;4.00;;;3.20;;
10805;SDS011;5455;53.224;6.000;2022-10-17T04:22:46;4.67;;;3.63;;
10805;SDS011;5455;53.224;6.000;2022-10-17T04:25:14;5.50;;;3.73;;
10805;SDS011;5455;53.224;6.000;2022-10-17T04:27:44;8.23;;;4.03;;
10805;SDS011;5455;53.224;6.000;2022-10-17T04:30:13;6.67;;;4.10;;
10805;SDS011;5455;53.224;6.000;2022-10-17T04:32:40;9.23;;;4.40;;
10805;SDS011;5455;53.224;6.000;2022-10-17T04:35:21;5.03;;;3.67;;
10805;SDS011;5455;53.224;6.000;2022-10-17T04:37:59;5.13;;;3.63;;
10805;SDS011;5455;53.224;6.000;2022-10-17T04:40:27;6.93;;;4.60;;
10805;SDS011;5455;53.224;6.000;2022-10-17T04:42:54;8.07;;;4.23;;
10805;SDS011;5455;53.224;6.000;2022-10-17T04:45:29;5.23;;;4.10;;
10805;SDS011;5455;53.224;6.000;2022-10-17T04:48:01;7.07;;;4.40;;
10805;SDS011;5455;53.224;6.000;2022-10-17T04:50:29;7.53;;;4.30;;
10805;SDS011;5455;53.224;6.000;2022-10-17T04:53:15;6.53;;;4.53;;
10805;SDS011;5455;53.224;6.000;2022-10-17T04:55:43;6.40;;;4.70;;
10805;SDS011;5455;53.224;6.000;2022-10-17T04:58:11;7.33;;;4.37;;
10805;SDS011;5455;53.224;6.000;2022-10-17T05:00:38;6.83;;;4.23;;
10805;SDS011;5455;53.224;6.000;2022-10-17T05:03:13;5.43;;;4.53;;
10805;SDS011;5455;53.224;6.000;2022-10-17T05:05:41;5.83;;;4.50;;
10805;SDS011;5455;53.224;6.000;2022-10-17T05:08:10;6.67;;;4.77;;
10805;SDS011;5455;53.224;6.000;2022-10-17T05:10:39;8.23;;;5.00;;
10805;SDS011;5455;53.224;6.000;2022-10-17T05:13:09;8.23;;;5.00;;
10805;SDS011;5455;53.224;6.000;2022-10-17T05:15:37;9.80;;;4.70;;
10805;SDS011;5455;53.224;6.000;2022-10-17T05:18:04;8.37;;;5.07;;
10805;SDS011;5455;53.224;6.000;2022-10-17T05:20:33;7.90;;;5.00;;
10805;SDS011;5455;53.224;6.000;2022-10-17T05:23:01;7.63;;;4.70;;
10805;SDS011;5455;53.224;6.000;2022-10-17T05:25:34;7.13;;;5.00;;
10805;SDS011;5455;53.224;6.000;2022-10-17T05:28:02;8.73;;;5.17;;
10805;SDS011;5455;53.224;6.000;2022-10-17T05:30:30;8.30;;;5.03;;
10805;SDS011;5455;53.224;6.000;2022-10-17T05:33:04;7.70;;;4.87;;
10805;SDS011;5455;53.224;6.000;2022-10-17T05:35:33;7.43;;;5.10;;
10805;SDS011;5455;53.224;6.000;2022-10-17T05:38:01;6.73;;;5.23;;
10805;SDS011;5455;53.224;6.000;2022-10-17T05:40:31;6.00;;;4.63;;
10805;SDS011;5455;53.224;6.000;2022-10-17T05:42:58;6.50;;;4.70;;
10805;SDS011;5455;53.224;6.000;2022-10-17T05:45:25;6.93;;;5.10;;
10805;SDS011;5455;53.224;6.000;2022-10-17T05:47:53;7.57;;;4.77;;
10805;SDS011;5455;53.224;6.000;2022-10-17T05:50:22;6.57;;;4.43;;
10805;SDS011;5455;53.224;6.000;2022-10-17T05:53:17;7.33;;;4.67;;
10805;SDS011;5455;53.224;6.000;2022-10-17T05:55:56;6.30;;;4.50;;
10805;SDS011;5455;53.224;6.000;2022-10-17T05:58:28;9.03;;;5.43;;
10805;SDS011;5455;53.224;6.000;2022-10-17T06:01:29;6.63;;;5.23;;
10805;SDS011;5455;53.224;6.000;2022-10-17T06:03:57;5.60;;;4.83;;
10805;SDS011;5455;53.224;6.000;2022-10-17T06:06:24;7.77;;;5.07;;
10805;SDS011;5455;53.224;6.000;2022-10-17T06:08:52;7.37;;;5.10;;
10805;SDS011;5455;53.224;6.000;2022-10-17T06:11:26;6.20;;;4.73;;
10805;SDS011;5455;53.224;6.000;2022-10-17T06:13:54;10.20;;;5.13;;
10805;SDS011;5455;53.224;6.000;2022-10-17T06:16:24;6.53;;;5.10;;
10805;SDS011;5455;53.224;6.000;2022-10-17T06:18:51;7.00;;;5.40;;
10805;SDS011;5455;53.224;6.000;2022-10-17T06:21:23;7.00;;;5.27;;
10805;SDS011;5455;53.224;6.000;2022-10-17T06:24:00;6.53;;;4.83;;
10805;SDS011;5455;53.224;6.000;2022-10-17T06:26:31;9.93;;;5.70;;
10805;SDS011;5455;53.224;6.000;2022-10-17T06:29:00;6.47;;;4.93;;
10805;SDS011;5455;53.224;6.000;2022-10-17T06:31:34;8.43;;;5.40;;
10805;SDS011;5455;53.224;6.000;2022-10-17T06:34:03;7.37;;;5.00;;
10805;SDS011;5455;53.224;6.000;2022-10-17T06:36:32;7.77;;;4.60;;
10805;SDS011;5455;53.224;6.000;2022-10-17T06:39:01;5.80;;;4.87;;
10805;SDS011;5455;53.224;6.000;2022-10-17T06:41:35;10.10;;;5.17;;
10805;SDS011;5455;53.224;6.000;2022-10-17T06:44:07;6.80;;;4.50;;
10805;SDS011;5455;53.224;6.000;2022-10-17T06:46:55;7.70;;;5.20;;
10805;SDS011;5455;53.224;6.000;2022-10-17T06:49:26;7.13;;;5.07;;
10805;SDS011;5455;53.224;6.000;2022-10-17T06:52:18;10.10;;;5.27;;
10805;SDS011;5455;53.224;6.000;2022-10-17T06:55:02;7.60;;;5.50;;
10805;SDS011;5455;53.224;6.000;2022-10-17T06:57:55;7.00;;;4.93;;
10805;SDS011;5455;53.224;6.000;2022-10-17T07:00:49;8.37;;;6.03;;
10805;SDS011;5455;53.224;6.000;2022-10-17T07:03:17;9.77;;;6.93;;
10805;SDS011;5455;53.224;6.000;2022-10-17T07:05:50;8.30;;;6.00;;
10805;SDS011;5455;53.224;6.000;2022-10-17T07:08:19;9.73;;;5.53;;
10805;SDS011;5455;53.224;6.000;2022-10-17T07:10:46;9.57;;;6.17;;
10805;SDS011;5455;53.224;6.000;2022-10-17T07:13:15;8.83;;;5.30;;
10805;SDS011;5455;53.224;6.000;2022-10-17T07:15:44;6.30;;;4.60;;
10805;SDS011;5455;53.224;6.000;2022-10-17T07:18:13;9.47;;;5.97;;
10805;SDS011;5455;53.224;6.000;2022-10-17T07:20:41;10.17;;;5.83;;
10805;SDS011;5455;53.224;6.000;2022-10-17T07:23:08;6.53;;;4.63;;
10805;SDS011;5455;53.224;6.000;2022-10-17T07:25:36;6.93;;;4.47;;
10805;SDS011;5455;53.224;6.000;2022-10-17T07:28:08;8.17;;;4.53;;
10805;SDS011;5455;53.224;6.000;2022-10-17T07:30:37;8.00;;;4.40;;
10805;SDS011;5455;53.224;6.000;2022-10-17T07:33:10;5.17;;;4.07;;
10805;SDS011;5455;53.224;6.000;2022-10-17T07:35:38;5.87;;;4.27;;
10805;SDS011;5455;53.224;6.000;2022-10-17T07:38:10;6.53;;;4.27;;
10805;SDS011;5455;53.224;6.000;2022-10-17T07:40:37;7.37;;;4.33;;
10805;SDS011;5455;53.224;6.000;2022-10-17T07:43:05;9.60;;;5.17;;
10805;SDS011;5455;53.224;6.000;2022-10-17T07:45:33;6.53;;;4.67;;
10805;SDS011;5455;53.224;6.000;2022-10-17T07:48:01;8.53;;;4.80;;
10805;SDS011;5455;53.224;6.000;2022-10-17T07:50:29;6.07;;;4.20;;
10805;SDS011;5455;53.224;6.000;2022-10-17T07:52:59;5.77;;;4.23;;
10805;SDS011;5455;53.224;6.000;2022-10-17T07:55:26;9.77;;;5.37;;
10805;SDS011;5455;53.224;6.000;2022-10-17T07:57:54;6.77;;;4.47;;
10805;SDS011;5455;53.224;6.000;2022-10-17T08:00:22;5.47;;;4.40;;
10805;SDS011;5455;53.224;6.000;2022-10-17T08:02:50;8.53;;;4.90;;
10805;SDS011;5455;53.224;6.000;2022-10-17T08:05:17;6.97;;;4.60;;
10805;SDS011;5455;53.224;6.000;2022-10-17T08:07:45;8.23;;;4.53;;
10805;SDS011;5455;53.224;6.000;2022-10-17T08:10:13;7.17;;;4.40;;
10805;SDS011;5455;53.224;6.000;2022-10-17T08:12:42;7.17;;;4.90;;
10805;SDS011;5455;53.224;6.000;2022-10-17T08:15:10;6.43;;;4.20;;
10805;SDS011;5455;53.224;6.000;2022-10-17T08:17:37;9.10;;;4.93;;
10805;SDS011;5455;53.224;6.000;2022-10-17T08:20:05;5.77;;;4.10;;
10805;SDS011;5455;53.224;6.000;2022-10-17T08:22:33;5.50;;;4.03;;
10805;SDS011;5455;53.224;6.000;2022-10-17T08:25:01;6.50;;;4.20;;
10805;SDS011;5455;53.224;6.000;2022-10-17T08:27:28;6.70;;;4.00;;
10805;SDS011;5455;53.224;6.000;2022-10-17T08:29:56;6.03;;;4.27;;
10805;SDS011;5455;53.224;6.000;2022-10-17T08:32:24;5.63;;;3.63;;
10805;SDS011;5455;53.224;6.000;2022-10-17T08:34:54;7.97;;;5.30;;
10805;SDS011;5455;53.224;6.000;2022-10-17T08:37:22;8.13;;;4.03;;
10805;SDS011;5455;53.224;6.000;2022-10-17T08:39:50;7.47;;;4.50;;
10805;SDS011;5455;53.224;6.000;2022-10-17T08:42:28;6.20;;;4.23;;
10805;SDS011;5455;53.224;6.000;2022-10-17T08:45:17;4.50;;;3.73;;
10805;SDS011;5455;53.224;6.000;2022-10-17T08:47:56;6.27;;;4.20;;
10805;SDS011;5455;53.224;6.000;2022-10-17T08:50:39;7.23;;;4.33;;
10805;SDS011;5455;53.224;6.000;2022-10-17T08:56:18;6.10;;;4.00;;
10805;SDS011;5455;53.224;6.000;2022-10-17T08:59:11;7.07;;;4.60;;
10805;SDS011;5455;53.224;6.000;2022-10-17T09:01:48;9.30;;;4.40;;
10805;SDS011;5455;53.224;6.000;2022-10-17T09:10:00;7.27;;;3.93;;
10805;SDS011;5455;53.224;6.000;2022-10-17T09:18:37;9.80;;;4.30;;
10805;SDS011;5455;53.224;6.000;2022-10-17T09:21:16;9.23;;;4.50;;
10805;SDS011;5455;53.224;6.000;2022-10-17T09:23:52;7.97;;;4.07;;
10805;SDS011;5455;53.224;6.000;2022-10-17T09:26:36;5.53;;;4.50;;
10805;SDS011;5455;53.224;6.000;2022-10-17T09:29:09;7.07;;;3.87;;
10805;SDS011;5455;53.224;6.000;2022-10-17T09:31:44;6.73;;;4.37;;
10805;SDS011;5455;53.224;6.000;2022-10-17T09:34:17;6.80;;;4.70;;
10805;SDS011;5455;53.224;6.000;2022-10-17T09:36:47;5.90;;;3.70;;
10805;SDS011;5455;53.224;6.000;2022-10-17T09:39:19;7.60;;;4.57;;
10805;SDS011;5455;53.224;6.000;2022-10-17T09:41:58;6.13;;;4.03;;
10805;SDS011;5455;53.224;6.000;2022-10-17T09:44:34;8.70;;;4.20;;
10805;SDS011;5455;53.224;6.000;2022-10-17T09:47:21;6.07;;;3.50;;
10805;SDS011;5455;53.224;6.000;2022-10-17T09:49:50;7.10;;;5.07;;
10805;SDS011;5455;53.224;6.000;2022-10-17T09:52:19;9.73;;;3.90;;
10805;SDS011;5455;53.224;6.000;2022-10-17T09:55:19;8.60;;;4.03;;
10805;SDS011;5455;53.224;6.000;2022-10-17T09:58:03;10.37;;;4.50;;
10805;SDS011;5455;53.224;6.000;2022-10-17T10:00:39;6.27;;;4.17;;
10805;SDS011;5455;53.224;6.000;2022-10-17T10:05:39;6.40;;;4.20;;
10805;SDS011;5455;53.224;6.000;2022-10-17T10:08:14;6.47;;;4.53;;
10805;SDS011;5455;53.224;6.000;2022-10-17T10:10:43;5.10;;;3.77;;
10805;SDS011;5455;53.224;6.000;2022-10-17T10:15:39;9.47;;;4.43;;
10805;SDS011;5455;53.224;6.000;2022-10-17T10:23:32;6.20;;;3.70;;
10805;SDS011;5455;53.224;6.000;2022-10-17T10:26:01;6.43;;;3.87;;
10805;SDS011;5455;53.224;6.000;2022-10-17T10:28:33;8.40;;;4.20;;
10805;SDS011;5455;53.224;6.000;2022-10-17T10:31:03;7.53;;;3.93;;
10805;SDS011;5455;53.224;6.000;2022-10-17T10:33:34;8.67;;;3.87;;
10805;SDS011;5455;53.224;6.000;2022-10-17T10:36:08;10.07;;;4.30;;
10805;SDS011;5455;53.224;6.000;2022-10-17T10:38:36;5.17;;;3.93;;
10805;SDS011;5455;53.224;6.000;2022-10-17T10:41:09;9.63;;;4.00;;
10805;SDS011;5455;53.224;6.000;2022-10-17T10:46:25;9.37;;;4.70;;
10805;SDS011;5455;53.224;6.000;2022-10-17T10:48:56;10.07;;;4.40;;
10805;SDS011;5455;53.224;6.000;2022-10-17T10:51:31;5.47;;;3.60;;
10805;SDS011;5455;53.224;6.000;2022-10-17T10:54:09;8.60;;;4.40;;
10805;SDS011;5455;53.224;6.000;2022-10-17T10:56:46;7.27;;;4.23;;
10805;SDS011;5455;53.224;6.000;2022-10-17T11:02:01;9.17;;;4.07;;
10805;SDS011;5455;53.224;6.000;2022-10-17T11:04:41;7.77;;;4.10;;
10805;SDS011;5455;53.224;6.000;2022-10-17T11:07:17;4.43;;;3.60;;
10805;SDS011;5455;53.224;6.000;2022-10-17T11:12:43;6.20;;;4.60;;
10805;SDS011;5455;53.224;6.000;2022-10-17T11:23:32;5.23;;;3.63;;
10805;SDS011;5455;53.224;6.000;2022-10-17T11:26:07;7.07;;;3.87;;
10805;SDS011;5455;53.224;6.000;2022-10-17T11:28:42;6.97;;;4.20;;
10805;SDS011;5455;53.224;6.000;2022-10-17T11:31:12;5.57;;;3.80;;
10805;SDS011;5455;53.224;6.000;2022-10-17T11:33:48;6.43;;;4.00;;
10805;SDS011;5455;53.224;6.000;2022-10-17T11:36:20;6.10;;;3.67;;
10805;SDS011;5455;53.224;6.000;2022-10-17T11:38:59;5.77;;;3.67;;
10805;SDS011;5455;53.224;6.000;2022-10-17T11:41:41;4.87;;;2.80;;
10805;SDS011;5455;53.224;6.000;2022-10-17T11:44:28;4.90;;;3.50;;
10805;SDS011;5455;53.224;6.000;2022-10-17T11:50:17;6.97;;;3.70;;
10805;SDS011;5455;53.224;6.000;2022-10-17T11:53:12;4.37;;;3.43;;
10805;SDS011;5455;53.224;6.000;2022-10-17T11:55:42;6.43;;;3.87;;
10805;SDS011;5455;53.224;6.000;2022-10-17T11:58:15;7.97;;;3.73;;
10805;SDS011;5455;53.224;6.000;2022-10-17T12:06:37;6.00;;;3.70;;
10805;SDS011;5455;53.224;6.000;2022-10-17T12:09:31;5.77;;;3.90;;
10805;SDS011;5455;53.224;6.000;2022-10-17T12:12:01;5.67;;;3.23;;
10805;SDS011;5455;53.224;6.000;2022-10-17T12:14:39;5.57;;;3.40;;
10805;SDS011;5455;53.224;6.000;2022-10-17T12:19:49;5.50;;;3.10;;
10805;SDS011;5455;53.224;6.000;2022-10-17T12:25:00;7.83;;;3.60;;
10805;SDS011;5455;53.224;6.000;2022-10-17T12:27:42;6.80;;;3.17;;
10805;SDS011;5455;53.224;6.000;2022-10-17T12:33:02;4.27;;;3.13;;
10805;SDS011;5455;53.224;6.000;2022-10-17T12:35:35;4.93;;;3.70;;
10805;SDS011;5455;53.224;6.000;2022-10-17T12:45:44;5.10;;;2.80;;
10805;SDS011;5455;53.224;6.000;2022-10-17T12:48:44;5.30;;;2.77;;
10805;SDS011;5455;53.224;6.000;2022-10-17T12:51:07;4.70;;;2.53;;
10805;SDS011;5455;53.224;6.000;2022-10-17T12:53:58;4.93;;;2.70;;
10805;SDS011;5455;53.224;6.000;2022-10-17T12:56:30;4.27;;;2.60;;
10805;SDS011;5455;53.224;6.000;2022-10-17T12:59:17;4.90;;;2.40;;
10805;SDS011;5455;53.224;6.000;2022-10-17T13:01:50;5.87;;;2.30;;
10805;SDS011;5455;53.224;6.000;2022-10-17T13:04:20;5.63;;;2.83;;
10805;SDS011;5455;53.224;6.000;2022-10-17T13:06:50;3.40;;;2.60;;
10805;SDS011;5455;53.224;6.000;2022-10-17T13:11:51;5.53;;;2.43;;
10805;SDS011;5455;53.224;6.000;2022-10-17T13:14:20;4.93;;;2.40;;
10805;SDS011;5455;53.224;6.000;2022-10-17T13:16:51;3.03;;;2.17;;
10805;SDS011;5455;53.224;6.000;2022-10-17T13:19:22;4.43;;;2.53;;
10805;SDS011;5455;53.224;6.000;2022-10-17T13:22:01;4.73;;;2.43;;
10805;SDS011;5455;53.224;6.000;2022-10-17T13:24:34;4.00;;;2.23;;
10805;SDS011;5455;53.224;6.000;2022-10-17T13:27:04;3.97;;;2.00;;
10805;SDS011;5455;53.224;6.000;2022-10-17T13:29:47;4.17;;;2.17;;
10805;SDS011;5455;53.224;6.000;2022-10-17T13:32:14;4.00;;;2.00;;
10805;SDS011;5455;53.224;6.000;2022-10-17T13:34:42;4.03;;;2.10;;
10805;SDS011;5455;53.224;6.000;2022-10-17T13:37:11;4.50;;;2.07;;
10805;SDS011;5455;53.224;6.000;2022-10-17T13:39:45;2.17;;;1.80;;
10805;SDS011;5455;53.224;6.000;2022-10-17T13:42:27;2.90;;;1.77;;
10805;SDS011;5455;53.224;6.000;2022-10-17T13:44:58;3.47;;;1.73;;
10805;SDS011;5455;53.224;6.000;2022-10-17T13:47:26;3.93;;;2.10;;
10805;SDS011;5455;53.224;6.000;2022-10-17T13:49:55;4.70;;;2.10;;
10805;SDS011;5455;53.224;6.000;2022-10-17T13:52:26;8.57;;;2.70;;
10805;SDS011;5455;53.224;6.000;2022-10-17T13:55:15;3.77;;;2.50;;
10805;SDS011;5455;53.224;6.000;2022-10-17T13:57:46;5.07;;;2.20;;
10805;SDS011;5455;53.224;6.000;2022-10-17T14:00:20;2.70;;;1.73;;
10805;SDS011;5455;53.224;6.000;2022-10-17T14:02:49;3.07;;;1.90;;
10805;SDS011;5455;53.224;6.000;2022-10-17T14:05:17;3.27;;;1.60;;
10805;SDS011;5455;53.224;6.000;2022-10-17T14:08:02;3.27;;;1.70;;
10805;SDS011;5455;53.224;6.000;2022-10-17T14:10:42;4.90;;;2.27;;
10805;SDS011;5455;53.224;6.000;2022-10-17T14:13:26;3.13;;;1.43;;
10805;SDS011;5455;53.224;6.000;2022-10-17T14:16:00;4.77;;;2.10;;
10805;SDS011;5455;53.224;6.000;2022-10-17T14:18:31;3.90;;;1.80;;
10805;SDS011;5455;53.224;6.000;2022-10-17T14:21:03;4.80;;;2.33;;
10805;SDS011;5455;53.224;6.000;2022-10-17T14:24:06;5.63;;;2.10;;
10805;SDS011;5455;53.224;6.000;2022-10-17T14:26:45;4.07;;;1.87;;
10805;SDS011;5455;53.224;6.000;2022-10-17T14:29:23;3.57;;;1.67;;
10805;SDS011;5455;53.224;6.000;2022-10-17T14:31:59;4.27;;;1.73;;
10805;SDS011;5455;53.224;6.000;2022-10-17T14:34:35;4.17;;;1.67;;
10805;SDS011;5455;53.224;6.000;2022-10-17T14:37:10;3.63;;;1.30;;
10805;SDS011;5455;53.224;6.000;2022-10-17T14:39:58;4.23;;;1.40;;
10805;SDS011;5455;53.224;6.000;2022-10-17T14:42:26;3.87;;;1.83;;
10805;SDS011;5455;53.224;6.000;2022-10-17T14:44:55;2.57;;;1.47;;
10805;SDS011;5455;53.224;6.000;2022-10-17T14:47:29;2.77;;;1.70;;
10805;SDS011;5455;53.224;6.000;2022-10-17T14:52:37;1.60;;;1.50;;
10805;SDS011;5455;53.224;6.000;2022-10-17T14:55:25;4.97;;;2.10;;
10805;SDS011;5455;53.224;6.000;2022-10-17T14:57:54;5.53;;;1.70;;
10805;SDS011;5455;53.224;6.000;2022-10-17T15:00:22;3.23;;;1.80;;
10805;SDS011;5455;53.224;6.000;2022-10-17T15:02:51;4.23;;;1.93;;
10805;SDS011;5455;53.224;6.000;2022-10-17T15:05:20;5.57;;;1.40;;
10805;SDS011;5455;53.224;6.000;2022-10-17T15:07:49;2.77;;;1.60;;
10805;SDS011;5455;53.224;6.000;2022-10-17T15:10:28;7.63;;;1.93;;
10805;SDS011;5455;53.224;6.000;2022-10-17T15:12:59;2.47;;;1.77;;
10805;SDS011;5455;53.224;6.000;2022-10-17T15:15:47;3.23;;;1.50;;
10805;SDS011;5455;53.224;6.000;2022-10-17T15:18:18;5.30;;;1.87;;
10805;SDS011;5455;53.224;6.000;2022-10-17T15:20:45;4.47;;;1.57;;
10805;SDS011;5455;53.224;6.000;2022-10-17T15:23:21;8.33;;;2.20;;
10805;SDS011;5455;53.224;6.000;2022-10-17T15:25:49;4.00;;;1.70;;
10805;SDS011;5455;53.224;6.000;2022-10-17T15:28:16;4.03;;;1.67;;
10805;SDS011;5455;53.224;6.000;2022-10-17T15:30:43;5.10;;;1.80;;
10805;SDS011;5455;53.224;6.000;2022-10-17T15:33:11;3.73;;;1.57;;
10805;SDS011;5455;53.224;6.000;2022-10-17T15:35:39;4.57;;;1.80;;
10805;SDS011;5455;53.224;6.000;2022-10-17T15:38:10;2.60;;;1.33;;
10805;SDS011;5455;53.224;6.000;2022-10-17T15:40:43;3.10;;;1.57;;
10805;SDS011;5455;53.224;6.000;2022-10-17T15:43:11;3.47;;;1.50;;
10805;SDS011;5455;53.224;6.000;2022-10-17T15:45:45;5.93;;;2.10;;
10805;SDS011;5455;53.224;6.000;2022-10-17T15:48:23;2.77;;;1.17;;
10805;SDS011;5455;53.224;6.000;2022-10-17T15:50:55;2.07;;;1.60;;
10805;SDS011;5455;53.224;6.000;2022-10-17T15:53:24;2.73;;;1.67;;
10805;SDS011;5455;53.224;6.000;2022-10-17T15:55:51;3.47;;;1.50;;
10805;SDS011;5455;53.224;6.000;2022-10-17T15:58:19;2.77;;;1.50;;
10805;SDS011;5455;53.224;6.000;2022-10-17T16:00:46;2.73;;;1.50;;
10805;SDS011;5455;53.224;6.000;2022-10-17T16:03:14;3.07;;;1.30;;
10805;SDS011;5455;53.224;6.000;2022-10-17T16:05:42;4.47;;;1.70;;
10805;SDS011;5455;53.224;6.000;2022-10-17T16:08:09;3.80;;;1.67;;
10805;SDS011;5455;53.224;6.000;2022-10-17T16:10:37;3.07;;;1.30;;
10805;SDS011;5455;53.224;6.000;2022-10-17T16:13:09;5.50;;;2.20;;
10805;SDS011;5455;53.224;6.000;2022-10-17T16:15:43;3.50;;;1.40;;
10805;SDS011;5455;53.224;6.000;2022-10-17T16:18:10;3.80;;;1.80;;
10805;SDS011;5455;53.224;6.000;2022-10-17T16:20:38;2.00;;;1.40;;
10805;SDS011;5455;53.224;6.000;2022-10-17T16:23:06;2.60;;;1.43;;
10805;SDS011;5455;53.224;6.000;2022-10-17T16:25:34;4.53;;;1.50;;
10805;SDS011;5455;53.224;6.000;2022-10-17T16:28:02;3.43;;;1.50;;
10805;SDS011;5455;53.224;6.000;2022-10-17T16:30:30;4.80;;;1.77;;
10805;SDS011;5455;53.224;6.000;2022-10-17T16:32:58;2.90;;;1.40;;
10805;SDS011;5455;53.224;6.000;2022-10-17T16:35:27;5.87;;;1.50;;
10805;SDS011;5455;53.224;6.000;2022-10-17T16:38:03;4.97;;;1.53;;
10805;SDS011;5455;53.224;6.000;2022-10-17T16:40:31;3.50;;;1.40;;
10805;SDS011;5455;53.224;6.000;2022-10-17T16:42:59;3.40;;;1.30;;
10805;SDS011;5455;53.224;6.000;2022-10-17T16:45:27;1.80;;;1.30;;
10805;SDS011;5455;53.224;6.000;2022-10-17T16:47:54;6.03;;;1.40;;
10805;SDS011;5455;53.224;6.000;2022-10-17T16:50:22;1.50;;;1.30;;
10805;SDS011;5455;53.224;6.000;2022-10-17T16:52:50;2.50;;;1.50;;
10805;SDS011;5455;53.224;6.000;2022-10-17T16:55:18;5.17;;;1.40;;
10805;SDS011;5455;53.224;6.000;2022-10-17T16:57:45;4.20;;;1.57;;
10805;SDS011;5455;53.224;6.000;2022-10-17T17:00:15;1.60;;;1.33;;
10805;SDS011;5455;53.224;6.000;2022-10-17T17:02:45;5.70;;;1.37;;
10805;SDS011;5455;53.224;6.000;2022-10-17T17:05:14;5.53;;;1.70;;
10805;SDS011;5455;53.224;6.000;2022-10-17T17:07:41;4.40;;;1.50;;
10805;SDS011;5455;53.224;6.000;2022-10-17T17:10:09;2.77;;;1.57;;
10805;SDS011;5455;53.224;6.000;2022-10-17T17:12:37;3.33;;;1.90;;
10805;SDS011;5455;53.224;6.000;2022-10-17T17:15:04;3.47;;;1.50;;
10805;SDS011;5455;53.224;6.000;2022-10-17T17:17:32;2.73;;;1.30;;
10805;SDS011;5455;53.224;6.000;2022-10-17T17:20:17;2.93;;;1.53;;